sensor_id;sensor_type;location;lat;lon;timestamp;P1;durP1;ratioP1;P2;durP2;ratioP2
52962;SDS011;38827;53.024;6.596;2022-10-18T00:00:11;46.92;;;26.38;;
52962;SDS011;38827;53.024;6.596;2022-10-18T00:06:17;50.55;;;26.23;;
52962;SDS011;38827;53.024;6.596;2022-10-18T00:08:46;56.97;;;26.67;;
52962;SDS011;38827;53.024;6.596;2022-10-18T00:11:17;48.40;;;23.75;;
52962;SDS011;38827;53.024;6.596;2022-10-18T00:13:47;41.70;;;23.13;;
52962;SDS011;38827;53.024;6.596;2022-10-18T00:16:24;57.65;;;26.10;;
52962;SDS011;38827;53.024;6.596;2022-10-18T00:18:50;52.13;;;25.15;;
52962;SDS011;38827;53.024;6.596;2022-10-18T00:21:45;45.20;;;24.33;;
52962;SDS011;38827;53.024;6.596;2022-10-18T00:24:19;64.50;;;27.35;;
52962;SDS011;38827;53.024;6.596;2022-10-18T00:26:48;53.20;;;25.13;;
52962;SDS011;38827;53.024;6.596;2022-10-18T00:32:10;50.00;;;23.90;;
52962;SDS011;38827;53.024;6.596;2022-10-18T00:34:37;66.43;;;28.10;;
52962;SDS011;38827;53.024;6.596;2022-10-18T00:37:10;45.72;;;25.10;;
52962;SDS011;38827;53.024;6.596;2022-10-18T00:42:53;47.53;;;24.48;;
52962;SDS011;38827;53.024;6.596;2022-10-18T00:45:22;66.75;;;28.55;;
52962;SDS011;38827;53.024;6.596;2022-10-18T00:53:40;68.15;;;28.02;;
52962;SDS011;38827;53.024;6.596;2022-10-18T00:56:09;59.63;;;27.25;;
52962;SDS011;38827;53.024;6.596;2022-10-18T00:58:35;34.53;;;21.17;;
52962;SDS011;38827;53.024;6.596;2022-10-18T01:01:00;54.03;;;26.13;;
52962;SDS011;38827;53.024;6.596;2022-10-18T01:15:53;57.10;;;26.52;;
52962;SDS011;38827;53.024;6.596;2022-10-18T01:21:58;53.58;;;24.73;;
52962;SDS011;38827;53.024;6.596;2022-10-18T01:31:15;63.13;;;24.58;;
52962;SDS011;38827;53.024;6.596;2022-10-18T01:34:27;40.20;;;22.05;;
52962;SDS011;38827;53.024;6.596;2022-10-18T01:37:27;66.85;;;27.35;;
52962;SDS011;38827;53.024;6.596;2022-10-18T01:39:59;53.67;;;25.48;;
52962;SDS011;38827;53.024;6.596;2022-10-18T01:42:42;63.20;;;26.10;;
52962;SDS011;38827;53.024;6.596;2022-10-18T01:51:18;51.88;;;24.80;;
52962;SDS011;38827;53.024;6.596;2022-10-18T01:53:51;72.38;;;27.63;;
52962;SDS011;38827;53.024;6.596;2022-10-18T02:10:40;62.20;;;26.77;;
52962;SDS011;38827;53.024;6.596;2022-10-18T02:13:23;51.70;;;24.38;;
52962;SDS011;38827;53.024;6.596;2022-10-18T02:16:25;80.45;;;27.80;;
52962;SDS011;38827;53.024;6.596;2022-10-18T02:19:13;49.08;;;24.70;;
52962;SDS011;38827;53.024;6.596;2022-10-18T02:21:46;65.82;;;26.45;;
52962;SDS011;38827;53.024;6.596;2022-10-18T02:24:14;74.30;;;27.60;;
52962;SDS011;38827;53.024;6.596;2022-10-18T02:27:21;71.25;;;27.15;;
52962;SDS011;38827;53.024;6.596;2022-10-18T02:29:47;54.58;;;26.10;;
52962;SDS011;38827;53.024;6.596;2022-10-18T02:36:09;51.85;;;24.65;;
52962;SDS011;38827;53.024;6.596;2022-10-18T02:41:29;65.50;;;27.10;;
52962;SDS011;38827;53.024;6.596;2022-10-18T02:43:58;82.82;;;30.58;;
52962;SDS011;38827;53.024;6.596;2022-10-18T02:46:33;88.63;;;31.42;;
52962;SDS011;38827;53.024;6.596;2022-10-18T02:48:59;96.45;;;30.17;;
52962;SDS011;38827;53.024;6.596;2022-10-18T02:51:28;107.72;;;32.13;;
52962;SDS011;38827;53.024;6.596;2022-10-18T02:53:55;74.55;;;29.65;;
52962;SDS011;38827;53.024;6.596;2022-10-18T02:56:21;72.50;;;27.92;;
52962;SDS011;38827;53.024;6.596;2022-10-18T02:59:07;63.80;;;25.37;;
52962;SDS011;38827;53.024;6.596;2022-10-18T03:04:39;63.33;;;27.38;;
52962;SDS011;38827;53.024;6.596;2022-10-18T03:07:20;63.42;;;24.92;;
52962;SDS011;38827;53.024;6.596;2022-10-18T03:09:55;108.40;;;29.10;;
52962;SDS011;38827;53.024;6.596;2022-10-18T03:12:27;92.70;;;29.27;;
52962;SDS011;38827;53.024;6.596;2022-10-18T03:15:10;164.73;;;31.45;;
52962;SDS011;38827;53.024;6.596;2022-10-18T03:17:36;94.53;;;27.55;;
52962;SDS011;38827;53.024;6.596;2022-10-18T03:20:02;153.60;;;29.90;;
52962;SDS011;38827;53.024;6.596;2022-10-18T03:22:27;108.18;;;28.08;;
52962;SDS011;38827;53.024;6.596;2022-10-18T03:25:02;345.05;;;36.03;;
52962;SDS011;38827;53.024;6.596;2022-10-18T03:27:28;261.15;;;33.35;;
52962;SDS011;38827;53.024;6.596;2022-10-18T03:29:54;110.45;;;28.42;;
52962;SDS011;38827;53.024;6.596;2022-10-18T03:35:07;267.85;;;33.33;;
52962;SDS011;38827;53.024;6.596;2022-10-18T03:37:54;255.75;;;31.70;;
52962;SDS011;38827;53.024;6.596;2022-10-18T03:40:26;231.43;;;31.33;;
52962;SDS011;38827;53.024;6.596;2022-10-18T03:43:20;227.13;;;27.10;;
52962;SDS011;38827;53.024;6.596;2022-10-18T03:45:53;155.27;;;28.70;;
52962;SDS011;38827;53.024;6.596;2022-10-18T03:48:37;74.93;;;24.90;;
52962;SDS011;38827;53.024;6.596;2022-10-18T03:51:24;102.10;;;24.13;;
52962;SDS011;38827;53.024;6.596;2022-10-18T03:53:55;179.47;;;26.60;;
52962;SDS011;38827;53.024;6.596;2022-10-18T03:56:31;186.27;;;27.88;;
52962;SDS011;38827;53.024;6.596;2022-10-18T03:59:02;172.50;;;27.73;;
52962;SDS011;38827;53.024;6.596;2022-10-18T04:01:32;192.80;;;26.75;;
52962;SDS011;38827;53.024;6.596;2022-10-18T04:03:58;234.13;;;25.73;;
52962;SDS011;38827;53.024;6.596;2022-10-18T04:06:33;158.27;;;22.60;;
52962;SDS011;38827;53.024;6.596;2022-10-18T04:09:12;296.58;;;29.15;;
52962;SDS011;38827;53.024;6.596;2022-10-18T04:14:37;231.73;;;22.70;;
52962;SDS011;38827;53.024;6.596;2022-10-18T04:17:15;175.32;;;21.80;;
52962;SDS011;38827;53.024;6.596;2022-10-18T04:19:54;208.20;;;22.67;;
52962;SDS011;38827;53.024;6.596;2022-10-18T04:22:50;185.63;;;22.58;;
52962;SDS011;38827;53.024;6.596;2022-10-18T04:25:16;425.77;;;31.85;;
52962;SDS011;38827;53.024;6.596;2022-10-18T04:27:54;102.15;;;19.48;;
52962;SDS011;38827;53.024;6.596;2022-10-18T04:30:20;221.15;;;22.08;;
52962;SDS011;38827;53.024;6.596;2022-10-18T04:32:46;128.63;;;18.25;;
52962;SDS011;38827;53.024;6.596;2022-10-18T04:35:24;166.05;;;19.70;;
52962;SDS011;38827;53.024;6.596;2022-10-18T04:37:50;136.13;;;18.73;;
52962;SDS011;38827;53.024;6.596;2022-10-18T04:40:25;138.95;;;19.05;;
52962;SDS011;38827;53.024;6.596;2022-10-18T04:45:53;188.27;;;21.60;;
52962;SDS011;38827;53.024;6.596;2022-10-18T04:48:36;134.63;;;18.17;;
52962;SDS011;38827;53.024;6.596;2022-10-18T04:51:16;166.38;;;19.45;;
52962;SDS011;38827;53.024;6.596;2022-10-18T04:53:42;165.60;;;22.88;;
52962;SDS011;38827;53.024;6.596;2022-10-18T04:56:23;115.05;;;18.30;;
52962;SDS011;38827;53.024;6.596;2022-10-18T04:58:58;84.93;;;18.92;;
52962;SDS011;38827;53.024;6.596;2022-10-18T05:01:24;68.35;;;17.65;;
52962;SDS011;38827;53.024;6.596;2022-10-18T05:03:53;71.72;;;17.55;;
52962;SDS011;38827;53.024;6.596;2022-10-18T05:06:40;78.80;;;19.08;;
52962;SDS011;38827;53.024;6.596;2022-10-18T05:09:17;38.00;;;16.73;;
52962;SDS011;38827;53.024;6.596;2022-10-18T05:11:55;50.65;;;18.67;;
52962;SDS011;38827;53.024;6.596;2022-10-18T05:14:32;74.95;;;20.40;;
52962;SDS011;38827;53.024;6.596;2022-10-18T05:17:13;97.15;;;19.98;;
52962;SDS011;38827;53.024;6.596;2022-10-18T05:19:52;55.28;;;17.05;;
52962;SDS011;38827;53.024;6.596;2022-10-18T05:22:27;46.08;;;16.25;;
52962;SDS011;38827;53.024;6.596;2022-10-18T05:25:39;47.95;;;16.92;;
52962;SDS011;38827;53.024;6.596;2022-10-18T05:28:07;90.72;;;18.30;;
52962;SDS011;38827;53.024;6.596;2022-10-18T05:30:49;73.63;;;18.13;;
52962;SDS011;38827;53.024;6.596;2022-10-18T05:33:23;63.30;;;19.27;;
52962;SDS011;38827;53.024;6.596;2022-10-18T05:35:48;47.45;;;17.52;;
52962;SDS011;38827;53.024;6.596;2022-10-18T05:38:14;87.65;;;17.90;;
52962;SDS011;38827;53.024;6.596;2022-10-18T05:40:40;80.22;;;16.52;;
52962;SDS011;38827;53.024;6.596;2022-10-18T05:45:56;111.20;;;17.83;;
52962;SDS011;38827;53.024;6.596;2022-10-18T05:48:39;108.18;;;18.90;;
52962;SDS011;38827;53.024;6.596;2022-10-18T05:51:04;66.38;;;17.65;;
52962;SDS011;38827;53.024;6.596;2022-10-18T05:59:14;64.00;;;15.10;;
52962;SDS011;38827;53.024;6.596;2022-10-18T06:01:40;69.70;;;17.60;;
52962;SDS011;38827;53.024;6.596;2022-10-18T06:04:38;66.82;;;14.90;;
52962;SDS011;38827;53.024;6.596;2022-10-18T06:07:07;47.33;;;14.45;;
52962;SDS011;38827;53.024;6.596;2022-10-18T06:10:06;70.47;;;16.10;;
52962;SDS011;38827;53.024;6.596;2022-10-18T06:12:32;69.25;;;15.85;;
52962;SDS011;38827;53.024;6.596;2022-10-18T06:14:58;65.68;;;14.23;;
52962;SDS011;38827;53.024;6.596;2022-10-18T06:17:33;73.22;;;14.38;;
52962;SDS011;38827;53.024;6.596;2022-10-18T06:23:00;98.35;;;14.50;;
52962;SDS011;38827;53.024;6.596;2022-10-18T06:25:38;33.35;;;13.55;;
52962;SDS011;38827;53.024;6.596;2022-10-18T06:28:13;60.08;;;14.50;;
52962;SDS011;38827;53.024;6.596;2022-10-18T06:30:55;35.65;;;12.10;;
52962;SDS011;38827;53.024;6.596;2022-10-18T06:33:34;55.00;;;12.68;;
52962;SDS011;38827;53.024;6.596;2022-10-18T06:36:06;96.50;;;13.82;;
52962;SDS011;38827;53.024;6.596;2022-10-18T06:38:40;164.65;;;17.08;;
52962;SDS011;38827;53.024;6.596;2022-10-18T06:41:06;110.13;;;13.48;;
52962;SDS011;38827;53.024;6.596;2022-10-18T06:43:33;104.57;;;12.43;;
52962;SDS011;38827;53.024;6.596;2022-10-18T06:45:59;138.95;;;14.30;;
52962;SDS011;38827;53.024;6.596;2022-10-18T06:48:30;153.73;;;14.68;;
52962;SDS011;38827;53.024;6.596;2022-10-18T06:51:00;264.52;;;18.58;;
52962;SDS011;38827;53.024;6.596;2022-10-18T06:53:50;74.53;;;13.57;;
52962;SDS011;38827;53.024;6.596;2022-10-18T06:56:24;212.95;;;17.48;;
52962;SDS011;38827;53.024;6.596;2022-10-18T06:58:59;55.63;;;14.55;;
52962;SDS011;38827;53.024;6.596;2022-10-18T07:04:39;70.28;;;15.38;;
52962;SDS011;38827;53.024;6.596;2022-10-18T07:07:17;59.90;;;12.77;;
52962;SDS011;38827;53.024;6.596;2022-10-18T07:13:23;62.00;;;12.70;;
52962;SDS011;38827;53.024;6.596;2022-10-18T07:19:14;61.85;;;14.30;;
52962;SDS011;38827;53.024;6.596;2022-10-18T07:21:46;95.43;;;13.70;;
52962;SDS011;38827;53.024;6.596;2022-10-18T07:24:38;68.82;;;12.18;;
52962;SDS011;38827;53.024;6.596;2022-10-18T07:27:04;19.90;;;10.40;;
52962;SDS011;38827;53.024;6.596;2022-10-18T07:29:38;37.30;;;10.77;;
52962;SDS011;38827;53.024;6.596;2022-10-18T07:32:17;28.30;;;8.85;;
52962;SDS011;38827;53.024;6.596;2022-10-18T07:34:42;22.77;;;8.38;;
52962;SDS011;38827;53.024;6.596;2022-10-18T07:37:08;50.88;;;9.55;;
52962;SDS011;38827;53.024;6.596;2022-10-18T07:39:34;29.85;;;9.05;;
52962;SDS011;38827;53.024;6.596;2022-10-18T07:41:59;28.73;;;8.75;;
52962;SDS011;38827;53.024;6.596;2022-10-18T07:44:31;160.07;;;11.20;;
52962;SDS011;38827;53.024;6.596;2022-10-18T07:47:03;44.00;;;9.07;;
52962;SDS011;38827;53.024;6.596;2022-10-18T07:49:38;24.13;;;8.80;;
52962;SDS011;38827;53.024;6.596;2022-10-18T07:52:04;18.23;;;7.65;;
52962;SDS011;38827;53.024;6.596;2022-10-18T07:57:48;18.20;;;6.70;;
52962;SDS011;38827;53.024;6.596;2022-10-18T08:00:15;49.40;;;7.35;;
52962;SDS011;38827;53.024;6.596;2022-10-18T08:02:44;18.85;;;6.22;;
52962;SDS011;38827;53.024;6.596;2022-10-18T08:05:12;31.42;;;6.75;;
52962;SDS011;38827;53.024;6.596;2022-10-18T08:07:54;18.30;;;6.25;;
52962;SDS011;38827;53.024;6.596;2022-10-18T08:10:22;29.38;;;6.00;;
52962;SDS011;38827;53.024;6.596;2022-10-18T08:13:25;21.73;;;5.72;;
52962;SDS011;38827;53.024;6.596;2022-10-18T08:16:29;14.35;;;5.30;;
52962;SDS011;38827;53.024;6.596;2022-10-18T08:19:07;11.70;;;5.05;;
52962;SDS011;38827;53.024;6.596;2022-10-18T08:21:51;11.10;;;4.55;;
52962;SDS011;38827;53.024;6.596;2022-10-18T08:24:28;9.50;;;4.88;;
52962;SDS011;38827;53.024;6.596;2022-10-18T08:27:08;9.80;;;5.50;;
52962;SDS011;38827;53.024;6.596;2022-10-18T08:29:34;5.57;;;4.38;;
52962;SDS011;38827;53.024;6.596;2022-10-18T08:31:59;4.27;;;3.50;;
52962;SDS011;38827;53.024;6.596;2022-10-18T08:37:34;7.95;;;3.10;;
52962;SDS011;38827;53.024;6.596;2022-10-18T08:40:03;6.50;;;3.20;;
52962;SDS011;38827;53.024;6.596;2022-10-18T08:45:14;5.38;;;2.25;;
52962;SDS011;38827;53.024;6.596;2022-10-18T08:47:49;6.38;;;2.50;;
52962;SDS011;38827;53.024;6.596;2022-10-18T08:50:30;4.25;;;2.17;;
52962;SDS011;38827;53.024;6.596;2022-10-18T08:53:19;4.03;;;2.20;;
52962;SDS011;38827;53.024;6.596;2022-10-18T08:56:10;5.15;;;2.10;;
52962;SDS011;38827;53.024;6.596;2022-10-18T09:01:35;5.97;;;2.00;;
52962;SDS011;38827;53.024;6.596;2022-10-18T09:15:59;4.40;;;1.83;;
52962;SDS011;38827;53.024;6.596;2022-10-18T09:24:49;6.05;;;1.98;;
52962;SDS011;38827;53.024;6.596;2022-10-18T09:30:48;6.00;;;2.08;;
52962;SDS011;38827;53.024;6.596;2022-10-18T09:36:40;6.65;;;1.80;;
52962;SDS011;38827;53.024;6.596;2022-10-18T09:39:38;6.40;;;1.85;;
52962;SDS011;38827;53.024;6.596;2022-10-18T09:45:31;7.00;;;2.15;;
52962;SDS011;38827;53.024;6.596;2022-10-18T09:48:34;10.07;;;2.03;;
52962;SDS011;38827;53.024;6.596;2022-10-18T10:00:25;6.50;;;1.70;;
52962;SDS011;38827;53.024;6.596;2022-10-18T10:02:55;11.60;;;2.65;;
52962;SDS011;38827;53.024;6.596;2022-10-18T10:05:22;6.97;;;1.85;;
52962;SDS011;38827;53.024;6.596;2022-10-18T10:07:48;8.43;;;2.10;;
52962;SDS011;38827;53.024;6.596;2022-10-18T10:10:28;10.05;;;2.20;;
52962;SDS011;38827;53.024;6.596;2022-10-18T10:13:05;7.53;;;2.05;;
52962;SDS011;38827;53.024;6.596;2022-10-18T10:16:01;11.63;;;2.78;;
52962;SDS011;38827;53.024;6.596;2022-10-18T10:18:31;8.02;;;1.80;;
52962;SDS011;38827;53.024;6.596;2022-10-18T10:21:35;10.48;;;2.40;;
52962;SDS011;38827;53.024;6.596;2022-10-18T10:24:33;9.48;;;2.42;;
52962;SDS011;38827;53.024;6.596;2022-10-18T10:32:54;11.27;;;2.35;;
52962;SDS011;38827;53.024;6.596;2022-10-18T10:41:27;9.55;;;2.03;;
52962;SDS011;38827;53.024;6.596;2022-10-18T10:44:15;6.63;;;1.90;;
52962;SDS011;38827;53.024;6.596;2022-10-18T10:46:48;9.98;;;2.17;;
52962;SDS011;38827;53.024;6.596;2022-10-18T10:49:19;5.47;;;1.67;;
52962;SDS011;38827;53.024;6.596;2022-10-18T10:52:24;7.20;;;1.90;;
52962;SDS011;38827;53.024;6.596;2022-10-18T10:54:52;9.00;;;1.65;;
52962;SDS011;38827;53.024;6.596;2022-10-18T10:57:22;6.45;;;1.70;;
52962;SDS011;38827;53.024;6.596;2022-10-18T11:00:11;10.75;;;1.85;;
52962;SDS011;38827;53.024;6.596;2022-10-18T11:03:13;7.28;;;1.73;;
52962;SDS011;38827;53.024;6.596;2022-10-18T11:05:45;8.25;;;1.50;;
52962;SDS011;38827;53.024;6.596;2022-10-18T11:08:18;11.05;;;1.77;;
52962;SDS011;38827;53.024;6.596;2022-10-18T11:13:50;8.32;;;1.77;;
52962;SDS011;38827;53.024;6.596;2022-10-18T11:22:04;6.50;;;1.50;;
52962;SDS011;38827;53.024;6.596;2022-10-18T11:24:34;7.47;;;1.73;;
52962;SDS011;38827;53.024;6.596;2022-10-18T11:27:13;8.43;;;1.70;;
52962;SDS011;38827;53.024;6.596;2022-10-18T11:30:16;7.82;;;1.90;;
52962;SDS011;38827;53.024;6.596;2022-10-18T11:33:00;7.88;;;1.67;;
52962;SDS011;38827;53.024;6.596;2022-10-18T11:41:30;11.50;;;1.70;;
52962;SDS011;38827;53.024;6.596;2022-10-18T11:44:10;9.45;;;1.85;;
52962;SDS011;38827;53.024;6.596;2022-10-18T11:52:30;10.73;;;1.60;;
52962;SDS011;38827;53.024;6.596;2022-10-18T12:00:52;6.03;;;1.15;;
52962;SDS011;38827;53.024;6.596;2022-10-18T12:03:50;7.97;;;1.27;;
52962;SDS011;38827;53.024;6.596;2022-10-18T12:06:23;7.75;;;1.40;;
52962;SDS011;38827;53.024;6.596;2022-10-18T12:09:00;8.65;;;1.50;;
52962;SDS011;38827;53.024;6.596;2022-10-18T12:11:34;8.25;;;1.67;;
52962;SDS011;38827;53.024;6.596;2022-10-18T12:19:56;5.60;;;1.20;;
52962;SDS011;38827;53.024;6.596;2022-10-18T12:22:28;6.05;;;1.63;;
52962;SDS011;38827;53.024;6.596;2022-10-18T12:24:59;6.25;;;1.38;;
52962;SDS011;38827;53.024;6.596;2022-10-18T12:27:28;8.98;;;1.73;;
52962;SDS011;38827;53.024;6.596;2022-10-18T12:30:44;8.82;;;1.92;;
52962;SDS011;38827;53.024;6.596;2022-10-18T12:42:56;8.80;;;1.83;;
52962;SDS011;38827;53.024;6.596;2022-10-18T12:45:34;12.50;;;2.33;;
52962;SDS011;38827;53.024;6.596;2022-10-18T12:48:40;7.78;;;1.60;;
52962;SDS011;38827;53.024;6.596;2022-10-18T12:51:32;11.90;;;2.28;;
52962;SDS011;38827;53.024;6.596;2022-10-18T12:54:15;10.05;;;2.00;;
52962;SDS011;38827;53.024;6.596;2022-10-18T12:56:44;7.70;;;1.55;;
52962;SDS011;38827;53.024;6.596;2022-10-18T13:04:42;7.85;;;2.15;;
52962;SDS011;38827;53.024;6.596;2022-10-18T13:12:57;10.52;;;1.38;;
52962;SDS011;38827;53.024;6.596;2022-10-18T13:16:32;7.70;;;1.50;;
52962;SDS011;38827;53.024;6.596;2022-10-18T13:22:30;9.93;;;1.58;;
52962;SDS011;38827;53.024;6.596;2022-10-18T13:41:15;8.88;;;1.92;;
52962;SDS011;38827;53.024;6.596;2022-10-18T13:46:22;7.47;;;1.50;;
52962;SDS011;38827;53.024;6.596;2022-10-18T13:57:20;11.70;;;2.10;;
52962;SDS011;38827;53.024;6.596;2022-10-18T14:08:14;8.43;;;1.50;;
52962;SDS011;38827;53.024;6.596;2022-10-18T14:13:35;10.40;;;1.60;;
52962;SDS011;38827;53.024;6.596;2022-10-18T14:16:33;6.95;;;1.42;;
52962;SDS011;38827;53.024;6.596;2022-10-18T14:24:42;9.77;;;1.60;;
52962;SDS011;38827;53.024;6.596;2022-10-18T14:27:14;8.55;;;1.42;;
52962;SDS011;38827;53.024;6.596;2022-10-18T14:32:47;7.45;;;1.40;;
52962;SDS011;38827;53.024;6.596;2022-10-18T14:35:16;6.45;;;1.58;;
52962;SDS011;38827;53.024;6.596;2022-10-18T14:37:50;10.07;;;1.40;;
52962;SDS011;38827;53.024;6.596;2022-10-18T14:40:25;9.32;;;1.75;;
52962;SDS011;38827;53.024;6.596;2022-10-18T14:43:10;7.65;;;1.45;;
52962;SDS011;38827;53.024;6.596;2022-10-18T14:45:37;10.23;;;2.20;;
52962;SDS011;38827;53.024;6.596;2022-10-18T14:48:14;8.38;;;1.63;;
52962;SDS011;38827;53.024;6.596;2022-10-18T14:50:47;10.07;;;1.90;;
52962;SDS011;38827;53.024;6.596;2022-10-18T14:55:53;9.30;;;1.63;;
52962;SDS011;38827;53.024;6.596;2022-10-18T14:58:22;8.77;;;1.63;;
52962;SDS011;38827;53.024;6.596;2022-10-18T15:00:48;5.70;;;1.35;;
52962;SDS011;38827;53.024;6.596;2022-10-18T15:03:17;6.40;;;1.63;;
52962;SDS011;38827;53.024;6.596;2022-10-18T15:06:02;9.68;;;1.50;;
52962;SDS011;38827;53.024;6.596;2022-10-18T15:08:39;11.15;;;2.00;;
52962;SDS011;38827;53.024;6.596;2022-10-18T15:11:09;8.10;;;1.77;;
52962;SDS011;38827;53.024;6.596;2022-10-18T15:13:41;13.82;;;1.95;;
52962;SDS011;38827;53.024;6.596;2022-10-18T15:16:17;10.50;;;1.80;;
52962;SDS011;38827;53.024;6.596;2022-10-18T15:21:22;8.85;;;1.85;;
52962;SDS011;38827;53.024;6.596;2022-10-18T15:23:49;9.95;;;1.95;;
52962;SDS011;38827;53.024;6.596;2022-10-18T15:26:22;9.20;;;1.75;;
52962;SDS011;38827;53.024;6.596;2022-10-18T15:28:56;11.98;;;2.08;;
52962;SDS011;38827;53.024;6.596;2022-10-18T15:31:27;8.10;;;1.77;;
52962;SDS011;38827;53.024;6.596;2022-10-18T15:34:07;8.60;;;1.80;;
52962;SDS011;38827;53.024;6.596;2022-10-18T15:36:43;11.52;;;2.03;;
52962;SDS011;38827;53.024;6.596;2022-10-18T15:39:20;9.43;;;1.60;;
52962;SDS011;38827;53.024;6.596;2022-10-18T15:41:53;9.73;;;1.88;;
52962;SDS011;38827;53.024;6.596;2022-10-18T15:49:51;8.68;;;1.67;;
52962;SDS011;38827;53.024;6.596;2022-10-18T15:56:09;14.73;;;2.25;;
52962;SDS011;38827;53.024;6.596;2022-10-18T15:59:22;8.20;;;2.25;;
52962;SDS011;38827;53.024;6.596;2022-10-18T16:01:49;11.38;;;1.70;;
52962;SDS011;38827;53.024;6.596;2022-10-18T16:06:53;11.55;;;2.38;;
52962;SDS011;38827;53.024;6.596;2022-10-18T16:09:22;8.00;;;1.77;;
52962;SDS011;38827;53.024;6.596;2022-10-18T16:14:35;10.93;;;1.95;;
52962;SDS011;38827;53.024;6.596;2022-10-18T16:17:02;7.88;;;1.42;;
52962;SDS011;38827;53.024;6.596;2022-10-18T16:19:35;7.55;;;1.60;;
52962;SDS011;38827;53.024;6.596;2022-10-18T16:22:00;10.40;;;2.08;;
52962;SDS011;38827;53.024;6.596;2022-10-18T16:24:26;7.90;;;1.40;;
52962;SDS011;38827;53.024;6.596;2022-10-18T16:26:55;7.85;;;1.45;;
52962;SDS011;38827;53.024;6.596;2022-10-18T16:29:21;8.13;;;1.60;;
52962;SDS011;38827;53.024;6.596;2022-10-18T16:31:55;7.95;;;1.65;;
52962;SDS011;38827;53.024;6.596;2022-10-18T16:34:22;8.57;;;1.73;;
52962;SDS011;38827;53.024;6.596;2022-10-18T16:36:50;18.45;;;2.83;;
52962;SDS011;38827;53.024;6.596;2022-10-18T16:39:17;10.75;;;2.10;;
52962;SDS011;38827;53.024;6.596;2022-10-18T16:41:44;8.07;;;1.58;;
52962;SDS011;38827;53.024;6.596;2022-10-18T16:44:11;16.92;;;2.17;;
52962;SDS011;38827;53.024;6.596;2022-10-18T16:46:44;9.98;;;1.90;;
52962;SDS011;38827;53.024;6.596;2022-10-18T16:51:57;11.93;;;3.40;;
52962;SDS011;38827;53.024;6.596;2022-10-18T16:54:30;10.88;;;4.10;;
52962;SDS011;38827;53.024;6.596;2022-10-18T16:56:55;14.50;;;4.00;;
52962;SDS011;38827;53.024;6.596;2022-10-18T16:59:30;10.10;;;3.70;;
52962;SDS011;38827;53.024;6.596;2022-10-18T17:01:56;12.82;;;3.38;;
52962;SDS011;38827;53.024;6.596;2022-10-18T17:04:22;7.75;;;2.80;;
52962;SDS011;38827;53.024;6.596;2022-10-18T17:06:47;8.43;;;2.10;;
52962;SDS011;38827;53.024;6.596;2022-10-18T17:09:13;9.95;;;1.73;;
52962;SDS011;38827;53.024;6.596;2022-10-18T17:11:39;5.88;;;1.33;;
52962;SDS011;38827;53.024;6.596;2022-10-18T17:14:06;9.37;;;1.70;;
52962;SDS011;38827;53.024;6.596;2022-10-18T17:16:32;10.43;;;1.33;;
52962;SDS011;38827;53.024;6.596;2022-10-18T17:19:01;5.35;;;1.30;;
52962;SDS011;38827;53.024;6.596;2022-10-18T17:21:30;8.93;;;1.55;;
52962;SDS011;38827;53.024;6.596;2022-10-18T17:23:57;8.75;;;2.08;;
52962;SDS011;38827;53.024;6.596;2022-10-18T17:26:25;6.28;;;1.90;;
52962;SDS011;38827;53.024;6.596;2022-10-18T17:28:52;8.60;;;1.70;;
52962;SDS011;38827;53.024;6.596;2022-10-18T17:31:19;8.82;;;1.75;;
52962;SDS011;38827;53.024;6.596;2022-10-18T17:34:04;8.45;;;1.20;;
52962;SDS011;38827;53.024;6.596;2022-10-18T17:36:42;4.28;;;0.90;;
52962;SDS011;38827;53.024;6.596;2022-10-18T17:39:14;9.82;;;1.35;;
52962;SDS011;38827;53.024;6.596;2022-10-18T17:41:43;10.38;;;1.48;;
52962;SDS011;38827;53.024;6.596;2022-10-18T17:44:24;6.65;;;1.42;;
52962;SDS011;38827;53.024;6.596;2022-10-18T17:46:53;6.90;;;1.50;;
52962;SDS011;38827;53.024;6.596;2022-10-18T17:52:13;10.10;;;1.50;;
52962;SDS011;38827;53.024;6.596;2022-10-18T17:54:39;8.52;;;1.85;;
52962;SDS011;38827;53.024;6.596;2022-10-18T17:57:26;8.70;;;1.60;;
52962;SDS011;38827;53.024;6.596;2022-10-18T17:59:52;7.30;;;1.73;;
52962;SDS011;38827;53.024;6.596;2022-10-18T18:02:19;8.40;;;1.52;;
52962;SDS011;38827;53.024;6.596;2022-10-18T18:04:45;7.20;;;1.23;;
52962;SDS011;38827;53.024;6.596;2022-10-18T18:07:10;9.10;;;1.75;;
52962;SDS011;38827;53.024;6.596;2022-10-18T18:09:36;4.90;;;1.75;;
52962;SDS011;38827;53.024;6.596;2022-10-18T18:12:05;8.38;;;1.70;;
52962;SDS011;38827;53.024;6.596;2022-10-18T18:14:31;5.25;;;1.50;;
52962;SDS011;38827;53.024;6.596;2022-10-18T18:16:58;8.20;;;1.88;;
52962;SDS011;38827;53.024;6.596;2022-10-18T18:19:28;6.22;;;1.45;;
52962;SDS011;38827;53.024;6.596;2022-10-18T18:21:55;12.75;;;2.05;;
52962;SDS011;38827;53.024;6.596;2022-10-18T18:24:28;8.60;;;2.15;;
52962;SDS011;38827;53.024;6.596;2022-10-18T18:26:54;9.02;;;1.85;;
52962;SDS011;38827;53.024;6.596;2022-10-18T18:29:20;5.88;;;1.70;;
52962;SDS011;38827;53.024;6.596;2022-10-18T18:31:47;8.88;;;1.75;;
52962;SDS011;38827;53.024;6.596;2022-10-18T18:34:14;5.22;;;1.70;;
52962;SDS011;38827;53.024;6.596;2022-10-18T18:36:40;10.30;;;1.55;;
52962;SDS011;38827;53.024;6.596;2022-10-18T18:39:25;7.80;;;2.50;;
52962;SDS011;38827;53.024;6.596;2022-10-18T18:42:03;10.35;;;2.00;;
52962;SDS011;38827;53.024;6.596;2022-10-18T18:44:44;13.27;;;1.80;;
52962;SDS011;38827;53.024;6.596;2022-10-18T18:47:13;9.18;;;2.10;;
52962;SDS011;38827;53.024;6.596;2022-10-18T18:49:49;6.78;;;1.50;;
52962;SDS011;38827;53.024;6.596;2022-10-18T18:52:15;5.97;;;1.73;;
52962;SDS011;38827;53.024;6.596;2022-10-18T18:54:41;8.48;;;1.63;;
52962;SDS011;38827;53.024;6.596;2022-10-18T18:57:25;6.10;;;1.95;;
52962;SDS011;38827;53.024;6.596;2022-10-18T18:59:50;7.65;;;1.90;;
52962;SDS011;38827;53.024;6.596;2022-10-18T19:02:16;8.70;;;1.42;;
52962;SDS011;38827;53.024;6.596;2022-10-18T19:04:42;9.82;;;1.50;;
52962;SDS011;38827;53.024;6.596;2022-10-18T19:07:13;8.55;;;1.48;;
52962;SDS011;38827;53.024;6.596;2022-10-18T19:12:53;7.35;;;1.25;;
52962;SDS011;38827;53.024;6.596;2022-10-18T19:15:19;6.93;;;1.60;;
52962;SDS011;38827;53.024;6.596;2022-10-18T19:17:45;8.27;;;1.60;;
52962;SDS011;38827;53.024;6.596;2022-10-18T19:20:21;9.90;;;2.22;;
52962;SDS011;38827;53.024;6.596;2022-10-18T19:23:06;6.18;;;1.30;;
52962;SDS011;38827;53.024;6.596;2022-10-18T19:25:32;5.72;;;1.30;;
52962;SDS011;38827;53.024;6.596;2022-10-18T19:28:06;6.85;;;1.40;;
52962;SDS011;38827;53.024;6.596;2022-10-18T19:33:40;5.75;;;1.58;;
52962;SDS011;38827;53.024;6.596;2022-10-18T19:36:11;4.05;;;1.50;;
52962;SDS011;38827;53.024;6.596;2022-10-18T19:38:48;8.40;;;1.40;;
52962;SDS011;38827;53.024;6.596;2022-10-18T19:41:23;7.60;;;1.52;;
52962;SDS011;38827;53.024;6.596;2022-10-18T19:43:53;4.10;;;1.40;;
52962;SDS011;38827;53.024;6.596;2022-10-18T19:49:16;5.93;;;1.77;;
52962;SDS011;38827;53.024;6.596;2022-10-18T19:51:55;5.03;;;1.90;;
52962;SDS011;38827;53.024;6.596;2022-10-18T19:54:33;8.85;;;2.63;;
52962;SDS011;38827;53.024;6.596;2022-10-18T19:57:14;11.57;;;2.60;;
52962;SDS011;38827;53.024;6.596;2022-10-18T19:59:40;13.13;;;2.80;;
52962;SDS011;38827;53.024;6.596;2022-10-18T20:02:05;7.53;;;1.98;;
52962;SDS011;38827;53.024;6.596;2022-10-18T20:04:36;7.00;;;2.45;;
52962;SDS011;38827;53.024;6.596;2022-10-18T20:07:11;5.78;;;2.30;;
52962;SDS011;38827;53.024;6.596;2022-10-18T20:09:36;6.10;;;1.90;;
52962;SDS011;38827;53.024;6.596;2022-10-18T20:12:03;6.13;;;1.65;;